sensor_id;sensor_type;location;lat;lon;timestamp;P1;durP1;ratioP1;P2;durP2;ratioP2
76758;SDS011;65701;45.588;5.186;2023-04-07T05:18:37;41.75;;;34.25;;
76758;SDS011;65701;45.588;5.186;2023-04-07T05:21:03;9.50;;;9.50;;
76758;SDS011;65701;45.588;5.186;2023-04-07T05:23:28;9.50;;;7.75;;
76758;SDS011;65701;45.588;5.186;2023-04-07T05:25:54;9.00;;;9.00;;
76758;SDS011;65701;45.588;5.186;2023-04-07T05:28:19;8.25;;;7.50;;
76758;SDS011;65701;45.588;5.186;2023-04-07T05:30:46;7.00;;;7.00;;
76758;SDS011;65701;45.588;5.186;2023-04-07T05:33:12;9.50;;;5.50;;
76758;SDS011;65701;45.588;5.186;2023-04-07T05:35:38;5.00;;;5.00;;
76758;SDS011;65701;45.588;5.186;2023-04-07T05:38:04;7.25;;;7.25;;
76758;SDS011;65701;45.588;5.186;2023-04-07T05:40:30;7.75;;;7.75;;
76758;SDS011;65701;45.588;5.186;2023-04-07T05:42:57;9.00;;;8.25;;
76758;SDS011;65701;45.588;5.186;2023-04-07T05:45:23;3.50;;;3.50;;
76758;SDS011;65701;45.588;5.186;2023-04-07T05:47:49;9.00;;;7.75;;
76758;SDS011;65701;45.588;5.186;2023-04-07T05:50:15;7.25;;;6.75;;
76758;SDS011;65701;45.588;5.186;2023-04-07T05:52:42;4.25;;;4.25;;
76758;SDS011;65701;45.588;5.186;2023-04-07T05:55:07;14.00;;;13.75;;
76758;SDS011;65701;45.588;5.186;2023-04-07T05:57:33;10.50;;;10.25;;
76758;SDS011;65701;45.588;5.186;2023-04-07T05:59:59;8.50;;;8.25;;
76758;SDS011;65701;45.588;5.186;2023-04-07T06:02:24;9.75;;;9.75;;
76758;SDS011;65701;45.588;5.186;2023-04-07T06:04:50;14.50;;;12.00;;
76758;SDS011;65701;45.588;5.186;2023-04-07T06:07:16;9.00;;;8.25;;
76758;SDS011;65701;45.588;5.186;2023-04-07T06:09:43;13.00;;;10.50;;
76758;SDS011;65701;45.588;5.186;2023-04-07T06:12:08;11.75;;;10.75;;
76758;SDS011;65701;45.588;5.186;2023-04-07T06:14:36;57.50;;;41.50;;
76758;SDS011;65701;45.588;5.186;2023-04-07T06:17:02;31.75;;;29.00;;
76758;SDS011;65701;45.588;5.186;2023-04-07T06:19:28;27.75;;;25.00;;
76758;SDS011;65701;45.588;5.186;2023-04-07T06:21:53;23.25;;;23.25;;
76758;SDS011;65701;45.588;5.186;2023-04-07T06:24:19;20.75;;;19.50;;
76758;SDS011;65701;45.588;5.186;2023-04-07T06:26:47;22.00;;;20.50;;
76758;SDS011;65701;45.588;5.186;2023-04-07T06:29:13;20.00;;;18.00;;
76758;SDS011;65701;45.588;5.186;2023-04-07T06:31:39;16.00;;;16.00;;
76758;SDS011;65701;45.588;5.186;2023-04-07T06:34:05;10.75;;;10.75;;
76758;SDS011;65701;45.588;5.186;2023-04-07T06:36:30;11.50;;;11.50;;
76758;SDS011;65701;45.588;5.186;2023-04-07T06:38:57;10.00;;;10.00;;
76758;SDS011;65701;45.588;5.186;2023-04-07T06:41:23;11.75;;;10.25;;
76758;SDS011;65701;45.588;5.186;2023-04-07T06:43:49;10.25;;;10.25;;
76758;SDS011;65701;45.588;5.186;2023-04-07T06:46:17;10.25;;;10.25;;
76758;SDS011;65701;45.588;5.186;2023-04-07T06:48:43;11.50;;;11.50;;
76758;SDS011;65701;45.588;5.186;2023-04-07T06:51:09;13.00;;;10.25;;
76758;SDS011;65701;45.588;5.186;2023-04-07T06:53:35;11.00;;;9.25;;
76758;SDS011;65701;45.588;5.186;2023-04-07T06:56:04;10.00;;;10.00;;
76758;SDS011;65701;45.588;5.186;2023-04-07T06:58:35;10.50;;;8.00;;
76758;SDS011;65701;45.588;5.186;2023-04-07T07:01:01;9.50;;;9.50;;
76758;SDS011;65701;45.588;5.186;2023-04-07T07:03:28;10.75;;;9.00;;
76758;SDS011;65701;45.588;5.186;2023-04-07T07:05:54;8.00;;;7.50;;
76758;SDS011;65701;45.588;5.186;2023-04-07T07:08:23;9.50;;;8.25;;
76758;SDS011;65701;45.588;5.186;2023-04-07T07:10:49;12.00;;;11.25;;
76758;SDS011;65701;45.588;5.186;2023-04-07T07:13:15;10.00;;;8.00;;
76758;SDS011;65701;45.588;5.186;2023-04-07T07:15:40;14.00;;;12.50;;
76758;SDS011;65701;45.588;5.186;2023-04-07T07:18:06;19.25;;;17.25;;
76758;SDS011;65701;45.588;5.186;2023-04-07T07:20:31;13.00;;;13.00;;
76758;SDS011;65701;45.588;5.186;2023-04-07T07:22:57;17.00;;;15.00;;
76758;SDS011;65701;45.588;5.186;2023-04-07T07:25:23;14.00;;;12.00;;
76758;SDS011;65701;45.588;5.186;2023-04-07T07:27:51;17.50;;;14.50;;
76758;SDS011;65701;45.588;5.186;2023-04-07T07:30:20;14.00;;;13.75;;
76758;SDS011;65701;45.588;5.186;2023-04-07T07:32:47;16.25;;;12.50;;
76758;SDS011;65701;45.588;5.186;2023-04-07T07:35:14;23.50;;;18.75;;
76758;SDS011;65701;45.588;5.186;2023-04-07T07:37:40;12.25;;;11.00;;
76758;SDS011;65701;45.588;5.186;2023-04-07T07:40:06;10.25;;;10.00;;
76758;SDS011;65701;45.588;5.186;2023-04-07T07:42:32;16.25;;;12.50;;
76758;SDS011;65701;45.588;5.186;2023-04-07T07:44:58;13.25;;;11.00;;
76758;SDS011;65701;45.588;5.186;2023-04-07T07:47:24;10.00;;;9.25;;
76758;SDS011;65701;45.588;5.186;2023-04-07T07:49:51;10.50;;;8.00;;
76758;SDS011;65701;45.588;5.186;2023-04-07T07:52:17;13.50;;;13.00;;
76758;SDS011;65701;45.588;5.186;2023-04-07T07:54:42;13.75;;;13.75;;
76758;SDS011;65701;45.588;5.186;2023-04-07T07:57:08;13.75;;;11.00;;
76758;SDS011;65701;45.588;5.186;2023-04-07T07:59:33;15.25;;;15.25;;
76758;SDS011;65701;45.588;5.186;2023-04-07T08:01:59;18.75;;;13.75;;
76758;SDS011;65701;45.588;5.186;2023-04-07T08:04:25;19.00;;;15.00;;
76758;SDS011;65701;45.588;5.186;2023-04-07T08:06:50;12.25;;;12.00;;
76758;SDS011;65701;45.588;5.186;2023-04-07T08:09:17;11.25;;;10.75;;
76758;SDS011;65701;45.588;5.186;2023-04-07T08:11:43;14.00;;;13.00;;
76758;SDS011;65701;45.588;5.186;2023-04-07T08:14:09;24.25;;;19.75;;
76758;SDS011;65701;45.588;5.186;2023-04-07T08:16:35;25.50;;;22.00;;
76758;SDS011;65701;45.588;5.186;2023-04-07T08:19:00;18.25;;;14.25;;
76758;SDS011;65701;45.588;5.186;2023-04-07T08:21:26;10.00;;;10.00;;
76758;SDS011;65701;45.588;5.186;2023-04-07T08:23:53;14.75;;;13.00;;
76758;SDS011;65701;45.588;5.186;2023-04-07T08:26:20;17.00;;;14.00;;
76758;SDS011;65701;45.588;5.186;2023-04-07T08:28:46;9.00;;;9.00;;
76758;SDS011;65701;45.588;5.186;2023-04-07T08:31:13;16.00;;;14.25;;
76758;SDS011;65701;45.588;5.186;2023-04-07T08:33:38;11.00;;;11.00;;
76758;SDS011;65701;45.588;5.186;2023-04-07T08:36:04;5.75;;;4.25;;
76758;SDS011;65701;45.588;5.186;2023-04-07T08:38:30;12.00;;;9.00;;
76758;SDS011;65701;45.588;5.186;2023-04-07T08:41:07;14.25;;;12.50;;
76758;SDS011;65701;45.588;5.186;2023-04-07T08:43:38;11.50;;;11.25;;
76758;SDS011;65701;45.588;5.186;2023-04-07T08:46:04;11.75;;;11.00;;
76758;SDS011;65701;45.588;5.186;2023-04-07T08:48:33;9.50;;;9.50;;
76758;SDS011;65701;45.588;5.186;2023-04-07T08:51:05;4.00;;;4.00;;
76758;SDS011;65701;45.588;5.186;2023-04-07T08:53:48;8.50;;;8.50;;
76758;SDS011;65701;45.588;5.186;2023-04-07T08:56:17;11.50;;;8.50;;
76758;SDS011;65701;45.588;5.186;2023-04-07T08:58:47;9.75;;;9.75;;
76758;SDS011;65701;45.588;5.186;2023-04-07T09:01:13;9.00;;;8.25;;
76758;SDS011;65701;45.588;5.186;2023-04-07T09:03:41;9.75;;;9.75;;
76758;SDS011;65701;45.588;5.186;2023-04-07T09:06:10;12.00;;;10.50;;
76758;SDS011;65701;45.588;5.186;2023-04-07T09:08:36;10.25;;;10.25;;
76758;SDS011;65701;45.588;5.186;2023-04-07T09:11:01;10.25;;;9.25;;
76758;SDS011;65701;45.588;5.186;2023-04-07T09:13:27;13.00;;;11.00;;
76758;SDS011;65701;45.588;5.186;2023-04-07T09:15:52;14.25;;;12.00;;
76758;SDS011;65701;45.588;5.186;2023-04-07T09:18:18;14.00;;;10.75;;
76758;SDS011;65701;45.588;5.186;2023-04-07T09:20:57;17.75;;;12.75;;
76758;SDS011;65701;45.588;5.186;2023-04-07T09:25:58;8.00;;;7.00;;
76758;SDS011;65701;45.588;5.186;2023-04-07T09:28:37;8.00;;;6.50;;
76758;SDS011;65701;45.588;5.186;2023-04-07T09:31:04;11.50;;;10.00;;
76758;SDS011;65701;45.588;5.186;2023-04-07T09:33:30;6.50;;;6.50;;
76758;SDS011;65701;45.588;5.186;2023-04-07T09:35:56;6.00;;;6.00;;
76758;SDS011;65701;45.588;5.186;2023-04-07T09:38:21;7.50;;;7.50;;
76758;SDS011;65701;45.588;5.186;2023-04-07T09:40:47;7.75;;;6.75;;
76758;SDS011;65701;45.588;5.186;2023-04-07T09:43:18;12.50;;;12.00;;
76758;SDS011;65701;45.588;5.186;2023-04-07T09:45:44;3.00;;;3.00;;
76758;SDS011;65701;45.588;5.186;2023-04-07T09:48:19;4.00;;;2.00;;
76758;SDS011;65701;45.588;5.186;2023-04-07T09:50:46;3.00;;;3.00;;
76758;SDS011;65701;45.588;5.186;2023-04-07T09:53:16;2.25;;;2.25;;
76758;SDS011;65701;45.588;5.186;2023-04-07T09:55:43;3.00;;;1.00;;
76758;SDS011;65701;45.588;5.186;2023-04-07T09:58:12;3.00;;;1.00;;
76758;SDS011;65701;45.588;5.186;2023-04-07T10:00:38;1.00;;;1.00;;
76758;SDS011;65701;45.588;5.186;2023-04-07T10:03:06;0.75;;;0.75;;
76758;SDS011;65701;45.588;5.186;2023-04-07T10:05:32;1.00;;;1.00;;
76758;SDS011;65701;45.588;5.186;2023-04-07T10:08:00;1.75;;;1.75;;
76758;SDS011;65701;45.588;5.186;2023-04-07T10:10:26;1.00;;;1.00;;
76758;SDS011;65701;45.588;5.186;2023-04-07T10:12:53;0.75;;;0.75;;
76758;SDS011;65701;45.588;5.186;2023-04-07T10:15:20;2.00;;;1.00;;
76758;SDS011;65701;45.588;5.186;2023-04-07T10:17:47;2.00;;;1.00;;
76758;SDS011;65701;45.588;5.186;2023-04-07T10:20:15;1.50;;;1.00;;
76758;SDS011;65701;45.588;5.186;2023-04-07T10:22:44;0.00;;;0.00;;
76758;SDS011;65701;45.588;5.186;2023-04-07T10:25:13;4.75;;;3.00;;
76758;SDS011;65701;45.588;5.186;2023-04-07T10:27:47;0.00;;;0.00;;
76758;SDS011;65701;45.588;5.186;2023-04-07T10:30:33;2.00;;;2.00;;
76758;SDS011;65701;45.588;5.186;2023-04-07T10:33:00;3.00;;;2.00;;
76758;SDS011;65701;45.588;5.186;2023-04-07T10:35:26;1.00;;;1.00;;
76758;SDS011;65701;45.588;5.186;2023-04-07T10:40:32;2.25;;;1.00;;
76758;SDS011;65701;45.588;5.186;2023-04-07T10:42:58;1.00;;;1.00;;
76758;SDS011;65701;45.588;5.186;2023-04-07T10:48:11;1.00;;;1.00;;
76758;SDS011;65701;45.588;5.186;2023-04-07T10:50:38;1.50;;;1.50;;
76758;SDS011;65701;45.588;5.186;2023-04-07T10:53:07;3.00;;;1.50;;
76758;SDS011;65701;45.588;5.186;2023-04-07T10:55:38;0.00;;;0.00;;
76758;SDS011;65701;45.588;5.186;2023-04-07T11:03:24;2.50;;;2.00;;
76758;SDS011;65701;45.588;5.186;2023-04-07T11:05:50;1.00;;;1.00;;
76758;SDS011;65701;45.588;5.186;2023-04-07T11:11:15;1.50;;;1.50;;
76758;SDS011;65701;45.588;5.186;2023-04-07T11:13:46;1.00;;;1.00;;
76758;SDS011;65701;45.588;5.186;2023-04-07T11:16:13;1.50;;;1.50;;
76758;SDS011;65701;45.588;5.186;2023-04-07T11:18:39;3.25;;;1.50;;
76758;SDS011;65701;45.588;5.186;2023-04-07T11:21:06;1.00;;;1.00;;
76758;SDS011;65701;45.588;5.186;2023-04-07T11:23:38;1.00;;;1.00;;
76758;SDS011;65701;45.588;5.186;2023-04-07T11:26:05;1.00;;;1.00;;
76758;SDS011;65701;45.588;5.186;2023-04-07T11:28:32;1.00;;;1.00;;
76758;SDS011;65701;45.588;5.186;2023-04-07T11:30:58;0.75;;;0.75;;
76758;SDS011;65701;45.588;5.186;2023-04-07T11:33:27;1.00;;;1.00;;
76758;SDS011;65701;45.588;5.186;2023-04-07T11:35:57;2.25;;;1.00;;
76758;SDS011;65701;45.588;5.186;2023-04-07T11:38:37;1.25;;;1.25;;
76758;SDS011;65701;45.588;5.186;2023-04-07T11:41:14;4.00;;;3.00;;
76758;SDS011;65701;45.588;5.186;2023-04-07T11:44:08;2.00;;;2.00;;
76758;SDS011;65701;45.588;5.186;2023-04-07T11:46:36;2.75;;;2.00;;
76758;SDS011;65701;45.588;5.186;2023-04-07T11:49:16;2.25;;;2.25;;
76758;SDS011;65701;45.588;5.186;2023-04-07T11:51:43;2.00;;;2.00;;
76758;SDS011;65701;45.588;5.186;2023-04-07T11:54:11;1.25;;;1.25;;
76758;SDS011;65701;45.588;5.186;2023-04-07T11:56:40;2.00;;;2.00;;
76758;SDS011;65701;45.588;5.186;2023-04-07T11:59:07;1.25;;;1.25;;
76758;SDS011;65701;45.588;5.186;2023-04-07T12:01:39;2.00;;;2.00;;
76758;SDS011;65701;45.588;5.186;2023-04-07T12:04:11;3.00;;;1.75;;
76758;SDS011;65701;45.588;5.186;2023-04-07T12:06:38;2.25;;;2.25;;
76758;SDS011;65701;45.588;5.186;2023-04-07T12:09:08;1.00;;;1.00;;
76758;SDS011;65701;45.588;5.186;2023-04-07T12:11:51;2.00;;;2.00;;
76758;SDS011;65701;45.588;5.186;2023-04-07T12:14:16;2.00;;;2.00;;
76758;SDS011;65701;45.588;5.186;2023-04-07T12:16:45;3.00;;;2.00;;
76758;SDS011;65701;45.588;5.186;2023-04-07T12:19:11;2.00;;;1.75;;
76758;SDS011;65701;45.588;5.186;2023-04-07T12:21:37;2.50;;;2.25;;
76758;SDS011;65701;45.588;5.186;2023-04-07T12:24:04;2.00;;;2.00;;
76758;SDS011;65701;45.588;5.186;2023-04-07T12:26:33;1.00;;;1.00;;
76758;SDS011;65701;45.588;5.186;2023-04-07T12:28:59;1.50;;;1.50;;
76758;SDS011;65701;45.588;5.186;2023-04-07T12:31:32;0.00;;;0.00;;
76758;SDS011;65701;45.588;5.186;2023-04-07T12:33:58;1.00;;;1.00;;
76758;SDS011;65701;45.588;5.186;2023-04-07T12:36:25;0.00;;;0.00;;
76758;SDS011;65701;45.588;5.186;2023-04-07T12:38:57;2.00;;;1.75;;
76758;SDS011;65701;45.588;5.186;2023-04-07T12:41:28;4.00;;;2.25;;
76758;SDS011;65701;45.588;5.186;2023-04-07T12:43:54;1.00;;;1.00;;
76758;SDS011;65701;45.588;5.186;2023-04-07T12:46:20;1.50;;;1.50;;
76758;SDS011;65701;45.588;5.186;2023-04-07T12:48:46;2.00;;;2.00;;
76758;SDS011;65701;45.588;5.186;2023-04-07T12:51:12;1.25;;;1.25;;
76758;SDS011;65701;45.588;5.186;2023-04-07T12:53:37;0.75;;;0.75;;
76758;SDS011;65701;45.588;5.186;2023-04-07T12:56:03;3.00;;;1.00;;
76758;SDS011;65701;45.588;5.186;2023-04-07T12:58:30;1.75;;;1.00;;
76758;SDS011;65701;45.588;5.186;2023-04-07T13:00:56;1.00;;;1.00;;
76758;SDS011;65701;45.588;5.186;2023-04-07T13:03:23;1.75;;;1.75;;
76758;SDS011;65701;45.588;5.186;2023-04-07T13:05:53;0.75;;;0.75;;
76758;SDS011;65701;45.588;5.186;2023-04-07T13:08:19;0.50;;;0.50;;
76758;SDS011;65701;45.588;5.186;2023-04-07T13:10:46;1.00;;;1.00;;
76758;SDS011;65701;45.588;5.186;2023-04-07T13:13:12;1.50;;;1.50;;
76758;SDS011;65701;45.588;5.186;2023-04-07T13:15:38;0.00;;;0.00;;
76758;SDS011;65701;45.588;5.186;2023-04-07T13:18:04;2.00;;;1.00;;
76758;SDS011;65701;45.588;5.186;2023-04-07T13:20:30;0.25;;;0.25;;
76758;SDS011;65701;45.588;5.186;2023-04-07T13:22:57;1.00;;;1.00;;
76758;SDS011;65701;45.588;5.186;2023-04-07T13:25:22;2.25;;;0.75;;
76758;SDS011;65701;45.588;5.186;2023-04-07T13:27:47;1.00;;;1.00;;
76758;SDS011;65701;45.588;5.186;2023-04-07T13:30:13;0.00;;;0.00;;
76758;SDS011;65701;45.588;5.186;2023-04-07T13:32:39;2.00;;;1.00;;
76758;SDS011;65701;45.588;5.186;2023-04-07T13:35:04;1.25;;;1.00;;
76758;SDS011;65701;45.588;5.186;2023-04-07T13:37:30;1.25;;;1.25;;
76758;SDS011;65701;45.588;5.186;2023-04-07T13:39:56;2.00;;;2.00;;
76758;SDS011;65701;45.588;5.186;2023-04-07T13:42:21;1.25;;;1.25;;
76758;SDS011;65701;45.588;5.186;2023-04-07T13:44:46;1.00;;;1.00;;
76758;SDS011;65701;45.588;5.186;2023-04-07T13:47:14;1.00;;;1.00;;
76758;SDS011;65701;45.588;5.186;2023-04-07T13:49:44;0.50;;;0.50;;
76758;SDS011;65701;45.588;5.186;2023-04-07T13:52:13;3.75;;;1.00;;
76758;SDS011;65701;45.588;5.186;2023-04-07T13:54:39;1.00;;;1.00;;
76758;SDS011;65701;45.588;5.186;2023-04-07T13:57:05;2.50;;;1.00;;
76758;SDS011;65701;45.588;5.186;2023-04-07T13:59:32;1.25;;;1.25;;
76758;SDS011;65701;45.588;5.186;2023-04-07T14:01:57;1.50;;;1.50;;
76758;SDS011;65701;45.588;5.186;2023-04-07T14:04:23;1.50;;;1.50;;
76758;SDS011;65701;45.588;5.186;2023-04-07T14:06:48;1.00;;;1.00;;
76758;SDS011;65701;45.588;5.186;2023-04-07T14:09:14;1.00;;;1.00;;
76758;SDS011;65701;45.588;5.186;2023-04-07T14:11:39;1.00;;;1.00;;
76758;SDS011;65701;45.588;5.186;2023-04-07T14:14:05;0.25;;;0.25;;
76758;SDS011;65701;45.588;5.186;2023-04-07T14:16:31;7.75;;;6.25;;
76758;SDS011;65701;45.588;5.186;2023-04-07T14:18:56;1.00;;;1.00;;
76758;SDS011;65701;45.588;5.186;2023-04-07T14:21:23;12.75;;;11.00;;
76758;SDS011;65701;45.588;5.186;2023-04-07T14:23:51;1.00;;;1.00;;
76758;SDS011;65701;45.588;5.186;2023-04-07T14:26:17;4.25;;;4.25;;
76758;SDS011;65701;45.588;5.186;2023-04-07T14:28:43;2.00;;;2.00;;
76758;SDS011;65701;45.588;5.186;2023-04-07T14:31:13;1.25;;;1.00;;
76758;SDS011;65701;45.588;5.186;2023-04-07T14:33:40;1.75;;;1.75;;
76758;SDS011;65701;45.588;5.186;2023-04-07T14:36:06;1.75;;;1.75;;
76758;SDS011;65701;45.588;5.186;2023-04-07T14:38:32;0.25;;;0.25;;
76758;SDS011;65701;45.588;5.186;2023-04-07T14:40:58;1.00;;;1.00;;
76758;SDS011;65701;45.588;5.186;2023-04-07T14:43:24;0.25;;;0.25;;
76758;SDS011;65701;45.588;5.186;2023-04-07T14:45:50;0.25;;;0.00;;
76758;SDS011;65701;45.588;5.186;2023-04-07T14:48:16;1.75;;;0.00;;
76758;SDS011;65701;45.588;5.186;2023-04-07T14:50:42;3.00;;;1.00;;
76758;SDS011;65701;45.588;5.186;2023-04-07T14:53:08;1.00;;;1.00;;
76758;SDS011;65701;45.588;5.186;2023-04-07T14:55:34;2.00;;;1.00;;
76758;SDS011;65701;45.588;5.186;2023-04-07T14:58:00;1.00;;;0.75;;
76758;SDS011;65701;45.588;5.186;2023-04-07T15:00:26;1.00;;;0.00;;
76758;SDS011;65701;45.588;5.186;2023-04-07T15:02:53;0.25;;;0.00;;
76758;SDS011;65701;45.588;5.186;2023-04-07T15:05:19;0.00;;;0.00;;
76758;SDS011;65701;45.588;5.186;2023-04-07T15:07:50;1.00;;;1.00;;
76758;SDS011;65701;45.588;5.186;2023-04-07T15:10:16;0.25;;;0.00;;
76758;SDS011;65701;45.588;5.186;2023-04-07T15:12:43;1.00;;;1.00;;
76758;SDS011;65701;45.588;5.186;2023-04-07T15:15:13;1.00;;;1.00;;
76758;SDS011;65701;45.588;5.186;2023-04-07T15:17:39;0.00;;;0.00;;
76758;SDS011;65701;45.588;5.186;2023-04-07T15:20:06;2.00;;;0.25;;
76758;SDS011;65701;45.588;5.186;2023-04-07T15:22:32;0.00;;;0.00;;
76758;SDS011;65701;45.588;5.186;2023-04-07T15:24:58;0.50;;;0.50;;
76758;SDS011;65701;45.588;5.186;2023-04-07T15:27:24;0.25;;;0.25;;
76758;SDS011;65701;45.588;5.186;2023-04-07T15:29:50;0.50;;;0.00;;
76758;SDS011;65701;45.588;5.186;2023-04-07T15:32:16;1.00;;;1.00;;
76758;SDS011;65701;45.588;5.186;2023-04-07T15:34:41;2.25;;;0.75;;
76758;SDS011;65701;45.588;5.186;2023-04-07T15:37:07;0.00;;;0.00;;
76758;SDS011;65701;45.588;5.186;2023-04-07T15:39:33;2.00;;;0.50;;
76758;SDS011;65701;45.588;5.186;2023-04-07T15:41:59;0.00;;;0.00;;
76758;SDS011;65701;45.588;5.186;2023-04-07T15:44:24;0.50;;;0.00;;
76758;SDS011;65701;45.588;5.186;2023-04-07T15:46:50;0.00;;;0.00;;
76758;SDS011;65701;45.588;5.186;2023-04-07T15:49:17;0.00;;;0.00;;
76758;SDS011;65701;45.588;5.186;2023-04-07T15:51:46;0.50;;;0.00;;
76758;SDS011;65701;45.588;5.186;2023-04-07T15:54:11;0.50;;;0.50;;
76758;SDS011;65701;45.588;5.186;2023-04-07T15:56:37;0.00;;;0.00;;
76758;SDS011;65701;45.588;5.186;2023-04-07T15:59:03;0.00;;;0.00;;
76758;SDS011;65701;45.588;5.186;2023-04-07T16:01:29;0.00;;;0.00;;
76758;SDS011;65701;45.588;5.186;2023-04-07T16:03:55;0.00;;;0.00;;
76758;SDS011;65701;45.588;5.186;2023-04-07T16:06:21;0.00;;;0.00;;
76758;SDS011;65701;45.588;5.186;2023-04-07T16:08:47;0.00;;;0.00;;
76758;SDS011;65701;45.588;5.186;2023-04-07T16:11:12;0.00;;;0.00;;
76758;SDS011;65701;45.588;5.186;2023-04-07T16:13:38;0.00;;;0.00;;
76758;SDS011;65701;45.588;5.186;2023-04-07T16:16:03;0.00;;;0.00;;
76758;SDS011;65701;45.588;5.186;2023-04-07T16:18:31;0.00;;;0.00;;
76758;SDS011;65701;45.588;5.186;2023-04-07T16:20:58;0.00;;;0.00;;
76758;SDS011;65701;45.588;5.186;2023-04-07T16:23:24;0.00;;;0.00;;
76758;SDS011;65701;45.588;5.186;2023-04-07T16:25:51;0.00;;;0.00;;
76758;SDS011;65701;45.588;5.186;2023-04-07T16:28:20;0.50;;;0.50;;
76758;SDS011;65701;45.588;5.186;2023-04-07T16:30:46;1.00;;;1.00;;
76758;SDS011;65701;45.588;5.186;2023-04-07T16:33:11;1.00;;;1.00;;
76758;SDS011;65701;45.588;5.186;2023-04-07T16:35:37;0.00;;;0.00;;
76758;SDS011;65701;45.588;5.186;2023-04-07T16:38:02;0.00;;;0.00;;
76758;SDS011;65701;45.588;5.186;2023-04-07T16:40:30;0.00;;;0.00;;
76758;SDS011;65701;45.588;5.186;2023-04-07T16:42:56;0.00;;;0.00;;
76758;SDS011;65701;45.588;5.186;2023-04-07T16:45:21;1.00;;;1.00;;
76758;SDS011;65701;45.588;5.186;2023-04-07T16:47:47;0.00;;;0.00;;
76758;SDS011;65701;45.588;5.186;2023-04-07T16:50:12;1.00;;;0.00;;
76758;SDS011;65701;45.588;5.186;2023-04-07T16:52:38;1.00;;;0.00;;
76758;SDS011;65701;45.588;5.186;2023-04-07T16:55:04;2.00;;;0.00;;
76758;SDS011;65701;45.588;5.186;2023-04-07T16:57:30;0.00;;;0.00;;
76758;SDS011;65701;45.588;5.186;2023-04-07T16:59:56;0.00;;;0.00;;
76758;SDS011;65701;45.588;5.186;2023-04-07T17:02:21;0.00;;;0.00;;
76758;SDS011;65701;45.588;5.186;2023-04-07T17:04:47;1.00;;;0.00;;
76758;SDS011;65701;45.588;5.186;2023-04-07T17:07:12;0.50;;;0.50;;
76758;SDS011;65701;45.588;5.186;2023-04-07T17:09:38;0.50;;;0.50;;
76758;SDS011;65701;45.588;5.186;2023-04-07T17:12:03;1.00;;;1.00;;
76758;SDS011;65701;45.588;5.186;2023-04-07T17:14:32;0.75;;;0.00;;
76758;SDS011;65701;45.588;5.186;2023-04-07T17:16:58;0.00;;;0.00;;
76758;SDS011;65701;45.588;5.186;2023-04-07T17:19:23;0.50;;;0.50;;
76758;SDS011;65701;45.588;5.186;2023-04-07T17:21:49;0.00;;;0.00;;
76758;SDS011;65701;45.588;5.186;2023-04-07T17:24:15;0.25;;;0.25;;
76758;SDS011;65701;45.588;5.186;2023-04-07T17:26:41;0.00;;;0.00;;
76758;SDS011;65701;45.588;5.186;2023-04-07T17:29:07;1.00;;;0.00;;
76758;SDS011;65701;45.588;5.186;2023-04-07T17:31:33;1.50;;;1.50;;
76758;SDS011;65701;45.588;5.186;2023-04-07T17:34:00;0.50;;;0.50;;
76758;SDS011;65701;45.588;5.186;2023-04-07T17:36:29;1.00;;;1.00;;
76758;SDS011;65701;45.588;5.186;2023-04-07T17:39:00;0.00;;;0.00;;
76758;SDS011;65701;45.588;5.186;2023-04-07T17:41:26;1.00;;;1.00;;
76758;SDS011;65701;45.588;5.186;2023-04-07T17:43:53;0.00;;;0.00;;
76758;SDS011;65701;45.588;5.186;2023-04-07T17:46:21;0.00;;;0.00;;
76758;SDS011;65701;45.588;5.186;2023-04-07T17:48:47;0.25;;;0.25;;
76758;SDS011;65701;45.588;5.186;2023-04-07T17:51:13;0.50;;;0.50;;
76758;SDS011;65701;45.588;5.186;2023-04-07T17:53:39;0.00;;;0.00;;
76758;SDS011;65701;45.588;5.186;2023-04-07T17:56:05;0.50;;;0.50;;
76758;SDS011;65701;45.588;5.186;2023-04-07T17:58:30;1.00;;;1.00;;
76758;SDS011;65701;45.588;5.186;2023-04-07T18:00:56;0.00;;;0.00;;
76758;SDS011;65701;45.588;5.186;2023-04-07T18:03:22;1.00;;;1.00;;
76758;SDS011;65701;45.588;5.186;2023-04-07T18:05:47;1.00;;;1.00;;
76758;SDS011;65701;45.588;5.186;2023-04-07T18:08:13;1.00;;;1.00;;
76758;SDS011;65701;45.588;5.186;2023-04-07T18:10:39;0.25;;;0.25;;
76758;SDS011;65701;45.588;5.186;2023-04-07T18:13:04;0.75;;;0.75;;
76758;SDS011;65701;45.588;5.186;2023-04-07T18:15:30;1.00;;;1.00;;
76758;SDS011;65701;45.588;5.186;2023-04-07T18:17:56;1.00;;;1.00;;
76758;SDS011;65701;45.588;5.186;2023-04-07T18:20:22;0.25;;;0.25;;
76758;SDS011;65701;45.588;5.186;2023-04-07T18:22:51;3.00;;;1.25;;
76758;SDS011;65701;45.588;5.186;2023-04-07T18:25:17;1.00;;;1.00;;
76758;SDS011;65701;45.588;5.186;2023-04-07T18:27:43;0.50;;;0.50;;
76758;SDS011;65701;45.588;5.186;2023-04-07T18:30:09;1.00;;;1.00;;
76758;SDS011;65701;45.588;5.186;2023-04-07T18:32:34;1.00;;;1.00;;
76758;SDS011;65701;45.588;5.186;2023-04-07T18:35:00;1.50;;;1.50;;
76758;SDS011;65701;45.588;5.186;2023-04-07T18:37:26;1.00;;;1.00;;
76758;SDS011;65701;45.588;5.186;2023-04-07T18:39:53;1.00;;;1.00;;
76758;SDS011;65701;45.588;5.186;2023-04-07T18:42:19;1.00;;;1.00;;
76758;SDS011;65701;45.588;5.186;2023-04-07T18:44:45;1.00;;;1.00;;
76758;SDS011;65701;45.588;5.186;2023-04-07T18:47:11;2.00;;;2.00;;
76758;SDS011;65701;45.588;5.186;2023-04-07T18:49:36;1.00;;;1.00;;
76758;SDS011;65701;45.588;5.186;2023-04-07T18:52:02;1.00;;;1.00;;
76758;SDS011;65701;45.588;5.186;2023-04-07T18:54:28;1.25;;;1.25;;
76758;SDS011;65701;45.588;5.186;2023-04-07T18:57:00;1.75;;;0.00;;
76758;SDS011;65701;45.588;5.186;2023-04-07T18:59:26;2.50;;;2.00;;
76758;SDS011;65701;45.588;5.186;2023-04-07T19:01:52;1.00;;;1.00;;
76758;SDS011;65701;45.588;5.186;2023-04-07T19:04:18;0.75;;;0.75;;
76758;SDS011;65701;45.588;5.186;2023-04-07T19:06:45;0.75;;;0.75;;
76758;SDS011;65701;45.588;5.186;2023-04-07T19:09:13;2.75;;;2.75;;
76758;SDS011;65701;45.588;5.186;2023-04-07T19:11:39;2.25;;;2.25;;
76758;SDS011;65701;45.588;5.186;2023-04-07T19:14:05;3.25;;;2.75;;
76758;SDS011;65701;45.588;5.186;2023-04-07T19:16:32;3.25;;;3.25;;
76758;SDS011;65701;45.588;5.186;2023-04-07T19:19:00;3.75;;;3.75;;
76758;SDS011;65701;45.588;5.186;2023-04-07T19:21:28;4.75;;;4.75;;
76758;SDS011;65701;45.588;5.186;2023-04-07T19:24:01;4.00;;;4.00;;
76758;SDS011;65701;45.588;5.186;2023-04-07T19:26:27;11.00;;;9.00;;
76758;SDS011;65701;45.588;5.186;2023-04-07T19:28:57;5.50;;;5.50;;
76758;SDS011;65701;45.588;5.186;2023-04-07T19:31:24;4.50;;;4.50;;
76758;SDS011;65701;45.588;5.186;2023-04-07T19:33:52;7.00;;;5.00;;
76758;SDS011;65701;45.588;5.186;2023-04-07T19:36:18;7.25;;;5.25;;
76758;SDS011;65701;45.588;5.186;2023-04-07T19:38:45;7.00;;;7.00;;
76758;SDS011;65701;45.588;5.186;2023-04-07T19:41:10;6.50;;;5.00;;
76758;SDS011;65701;45.588;5.186;2023-04-07T19:43:38;4.75;;;3.50;;
76758;SDS011;65701;45.588;5.186;2023-04-07T19:46:04;4.25;;;3.00;;
76758;SDS011;65701;45.588;5.186;2023-04-07T19:48:33;3.75;;;3.75;;
76758;SDS011;65701;45.588;5.186;2023-04-07T19:50:59;4.50;;;4.50;;
76758;SDS011;65701;45.588;5.186;2023-04-07T19:53:26;4.25;;;3.25;;
76758;SDS011;65701;45.588;5.186;2023-04-07T19:56:00;5.75;;;5.75;;
76758;SDS011;65701;45.588;5.186;2023-04-07T19:58:31;3.50;;;3.50;;
76758;SDS011;65701;45.588;5.186;2023-04-07T20:00:58;4.50;;;4.50;;
76758;SDS011;65701;45.588;5.186;2023-04-07T20:03:23;3.00;;;3.00;;
76758;SDS011;65701;45.588;5.186;2023-04-07T20:05:49;3.00;;;3.00;;
76758;SDS011;65701;45.588;5.186;2023-04-07T20:08:16;4.00;;;4.00;;
76758;SDS011;65701;45.588;5.186;2023-04-07T20:10:42;3.00;;;3.00;;
76758;SDS011;65701;45.588;5.186;2023-04-07T20:13:08;4.00;;;4.00;;
76758;SDS011;65701;45.588;5.186;2023-04-07T20:15:34;3.00;;;3.00;;